Loiza, Puerto Rico
Current Conditions -  °F | °C
As of 12:53 AM on Saturday 25 Oct 2014 (Local Time) from TJNR Reporting Station
Clear Clear  
Wind Chill: 78°   Ceiling: Unl
Heat Index: 81°   Visibility: 10mi
Dew Point: 75°   Wind: 0mph
Humidity: 90%   Direction: NA
Pressure: 29.93"   Gusts: NA
Location:  18.2°N, 65.86°W
Report Text: TJNR 250453Z AUTO 00000KT 10SM CLR 26/24 A2993 RMK AO2 SLP136 T02560239 $
Loading
Personal Weather Stations






























Interactive Weather Map
Tropical Storm Tracking
New forecast layout! Learn more

10-Day Weather Forecast

Advertisements
Track Severe Weather on mobile